sensor_id;sensor_type;location;lat;lon;timestamp;temperature;humidity
18882;DHT22;9573;50.948;11.600;2023-11-25T00:00:32;2.00;99.90
18882;DHT22;9573;50.948;11.600;2023-11-25T00:02:59;2.10;99.90
18882;DHT22;9573;50.948;11.600;2023-11-25T00:05:26;2.10;99.90
18882;DHT22;9573;50.948;11.600;2023-11-25T00:07:53;2.00;99.90
18882;DHT22;9573;50.948;11.600;2023-11-25T00:10:21;2.10;99.90
18882;DHT22;9573;50.948;11.600;2023-11-25T00:12:49;2.10;99.90
18882;DHT22;9573;50.948;11.600;2023-11-25T00:15:17;2.00;99.90
18882;DHT22;9573;50.948;11.600;2023-11-25T00:17:45;2.00;99.90
18882;DHT22;9573;50.948;11.600;2023-11-25T00:20:12;2.00;99.90
18882;DHT22;9573;50.948;11.600;2023-11-25T00:22:39;1.90;99.90
18882;DHT22;9573;50.948;11.600;2023-11-25T00:25:07;1.90;99.90
18882;DHT22;9573;50.948;11.600;2023-11-25T00:27:35;1.90;99.90
18882;DHT22;9573;50.948;11.600;2023-11-25T00:30:05;1.80;99.90
18882;DHT22;9573;50.948;11.600;2023-11-25T00:32:33;1.70;99.90
18882;DHT22;9573;50.948;11.600;2023-11-25T00:35:03;1.60;99.90
18882;DHT22;9573;50.948;11.600;2023-11-25T00:37:31;1.60;99.90
18882;DHT22;9573;50.948;11.600;2023-11-25T00:39:58;1.70;99.90
18882;DHT22;9573;50.948;11.600;2023-11-25T00:42:26;1.70;99.90
18882;DHT22;9573;50.948;11.600;2023-11-25T00:44:53;1.80;99.90
18882;DHT22;9573;50.948;11.600;2023-11-25T00:47:21;1.80;99.90
18882;DHT22;9573;50.948;11.600;2023-11-25T00:49:49;1.90;99.90
18882;DHT22;9573;50.948;11.600;2023-11-25T00:52:18;1.90;99.90
18882;DHT22;9573;50.948;11.600;2023-11-25T00:54:45;1.80;99.90
18882;DHT22;9573;50.948;11.600;2023-11-25T00:57:12;1.70;99.90
18882;DHT22;9573;50.948;11.600;2023-11-25T00:59:39;1.70;99.90
18882;DHT22;9573;50.948;11.600;2023-11-25T01:02:06;1.70;99.90
18882;DHT22;9573;50.948;11.600;2023-11-25T01:04:35;1.80;99.90
18882;DHT22;9573;50.948;11.600;2023-11-25T01:07:03;1.90;99.90
18882;DHT22;9573;50.948;11.600;2023-11-25T01:09:30;1.90;99.90
18882;DHT22;9573;50.948;11.600;2023-11-25T01:11:57;1.80;99.90
18882;DHT22;9573;50.948;11.600;2023-11-25T01:14:24;1.70;99.90
18882;DHT22;9573;50.948;11.600;2023-11-25T01:16:51;1.70;99.90
18882;DHT22;9573;50.948;11.600;2023-11-25T01:19:19;1.60;99.90
18882;DHT22;9573;50.948;11.600;2023-11-25T01:21:47;1.60;99.90
18882;DHT22;9573;50.948;11.600;2023-11-25T01:24:14;1.70;99.90
18882;DHT22;9573;50.948;11.600;2023-11-25T01:26:42;1.70;99.90
18882;DHT22;9573;50.948;11.600;2023-11-25T01:29:09;1.60;99.90
18882;DHT22;9573;50.948;11.600;2023-11-25T01:31:39;1.50;99.90
18882;DHT22;9573;50.948;11.600;2023-11-25T01:34:06;1.40;99.90
18882;DHT22;9573;50.948;11.600;2023-11-25T01:36:33;1.20;99.90
18882;DHT22;9573;50.948;11.600;2023-11-25T01:39:02;1.20;99.90
18882;DHT22;9573;50.948;11.600;2023-11-25T01:41:30;1.20;99.90
18882;DHT22;9573;50.948;11.600;2023-11-25T01:43:57;1.40;99.90
18882;DHT22;9573;50.948;11.600;2023-11-25T01:46:32;1.50;99.90
18882;DHT22;9573;50.948;11.600;2023-11-25T01:49:03;1.70;99.90
18882;DHT22;9573;50.948;11.600;2023-11-25T01:51:31;1.80;99.90
18882;DHT22;9573;50.948;11.600;2023-11-25T01:53:59;1.80;99.90
18882;DHT22;9573;50.948;11.600;2023-11-25T01:56:28;1.90;99.90
18882;DHT22;9573;50.948;11.600;2023-11-25T01:58:56;2.00;99.90
18882;DHT22;9573;50.948;11.600;2023-11-25T02:01:26;2.10;99.90
18882;DHT22;9573;50.948;11.600;2023-11-25T02:03:55;2.10;99.90
18882;DHT22;9573;50.948;11.600;2023-11-25T02:06:22;2.20;99.90
18882;DHT22;9573;50.948;11.600;2023-11-25T02:08:51;2.20;99.90
18882;DHT22;9573;50.948;11.600;2023-11-25T02:11:18;2.30;99.90
18882;DHT22;9573;50.948;11.600;2023-11-25T02:13:46;2.30;99.90
18882;DHT22;9573;50.948;11.600;2023-11-25T02:16:14;2.30;99.90
18882;DHT22;9573;50.948;11.600;2023-11-25T02:18:41;2.30;99.90
18882;DHT22;9573;50.948;11.600;2023-11-25T02:21:09;2.30;99.90
18882;DHT22;9573;50.948;11.600;2023-11-25T02:23:38;2.40;99.90
18882;DHT22;9573;50.948;11.600;2023-11-25T02:26:05;2.40;99.90
18882;DHT22;9573;50.948;11.600;2023-11-25T02:28:33;2.40;99.90
18882;DHT22;9573;50.948;11.600;2023-11-25T02:31:01;2.30;99.90
18882;DHT22;9573;50.948;11.600;2023-11-25T02:33:32;2.30;99.90
18882;DHT22;9573;50.948;11.600;2023-11-25T02:36:03;2.30;99.90
18882;DHT22;9573;50.948;11.600;2023-11-25T02:38:33;2.30;99.90
18882;DHT22;9573;50.948;11.600;2023-11-25T02:41:02;2.30;99.90
18882;DHT22;9573;50.948;11.600;2023-11-25T02:43:30;2.40;99.90
18882;DHT22;9573;50.948;11.600;2023-11-25T02:45:56;2.40;99.90
18882;DHT22;9573;50.948;11.600;2023-11-25T02:48:23;2.40;99.90
18882;DHT22;9573;50.948;11.600;2023-11-25T02:50:50;2.50;99.90
18882;DHT22;9573;50.948;11.600;2023-11-25T02:53:18;0.90;99.90
18882;DHT22;9573;50.948;11.600;2023-11-25T02:55:45;2.50;99.90
18882;DHT22;9573;50.948;11.600;2023-11-25T02:58:14;2.50;99.90
18882;DHT22;9573;50.948;11.600;2023-11-25T03:00:42;2.50;99.90
18882;DHT22;9573;50.948;11.600;2023-11-25T03:03:10;2.50;99.90
18882;DHT22;9573;50.948;11.600;2023-11-25T03:05:43;2.40;99.90
18882;DHT22;9573;50.948;11.600;2023-11-25T03:08:13;2.30;99.90
18882;DHT22;9573;50.948;11.600;2023-11-25T03:10:42;2.20;99.90
18882;DHT22;9573;50.948;11.600;2023-11-25T03:13:13;2.00;99.90
18882;DHT22;9573;50.948;11.600;2023-11-25T03:15:42;1.80;99.90
18882;DHT22;9573;50.948;11.600;2023-11-25T03:18:09;1.70;99.90
18882;DHT22;9573;50.948;11.600;2023-11-25T03:20:37;1.70;99.90
18882;DHT22;9573;50.948;11.600;2023-11-25T03:23:05;1.70;99.90
18882;DHT22;9573;50.948;11.600;2023-11-25T03:25:33;1.70;99.90
18882;DHT22;9573;50.948;11.600;2023-11-25T03:28:00;1.70;99.90
18882;DHT22;9573;50.948;11.600;2023-11-25T03:30:31;1.60;99.90
18882;DHT22;9573;50.948;11.600;2023-11-25T03:32:59;1.70;99.90
18882;DHT22;9573;50.948;11.600;2023-11-25T03:35:28;1.70;99.90
18882;DHT22;9573;50.948;11.600;2023-11-25T03:37:55;1.60;99.90
18882;DHT22;9573;50.948;11.600;2023-11-25T03:40:22;1.50;99.90
18882;DHT22;9573;50.948;11.600;2023-11-25T03:42:49;1.40;99.90
18882;DHT22;9573;50.948;11.600;2023-11-25T03:45:16;1.30;99.90
18882;DHT22;9573;50.948;11.600;2023-11-25T03:47:45;1.30;99.90
18882;DHT22;9573;50.948;11.600;2023-11-25T03:50:12;1.30;99.90
18882;DHT22;9573;50.948;11.600;2023-11-25T03:52:41;1.30;99.90
18882;DHT22;9573;50.948;11.600;2023-11-25T03:55:08;1.40;99.90
18882;DHT22;9573;50.948;11.600;2023-11-25T03:57:36;1.50;99.90
18882;DHT22;9573;50.948;11.600;2023-11-25T04:00:05;1.60;99.90
18882;DHT22;9573;50.948;11.600;2023-11-25T04:02:41;1.60;99.90
18882;DHT22;9573;50.948;11.600;2023-11-25T04:05:10;1.70;99.90
18882;DHT22;9573;50.948;11.600;2023-11-25T04:07:37;1.70;99.90
18882;DHT22;9573;50.948;11.600;2023-11-25T04:10:05;1.80;99.90
18882;DHT22;9573;50.948;11.600;2023-11-25T04:12:39;1.80;99.90
18882;DHT22;9573;50.948;11.600;2023-11-25T04:15:08;1.80;99.90
18882;DHT22;9573;50.948;11.600;2023-11-25T04:17:36;1.80;99.90
18882;DHT22;9573;50.948;11.600;2023-11-25T04:20:05;1.80;99.90
18882;DHT22;9573;50.948;11.600;2023-11-25T04:22:40;1.80;99.90
18882;DHT22;9573;50.948;11.600;2023-11-25T04:25:09;1.80;99.90
18882;DHT22;9573;50.948;11.600;2023-11-25T04:27:38;1.80;99.90
18882;DHT22;9573;50.948;11.600;2023-11-25T04:30:07;1.70;99.90
18882;DHT22;9573;50.948;11.600;2023-11-25T04:32:36;1.60;99.90
18882;DHT22;9573;50.948;11.600;2023-11-25T04:35:03;1.40;99.90
18882;DHT22;9573;50.948;11.600;2023-11-25T04:37:31;1.30;99.90
18882;DHT22;9573;50.948;11.600;2023-11-25T04:40:00;1.20;99.90
18882;DHT22;9573;50.948;11.600;2023-11-25T04:42:30;1.00;99.90
18882;DHT22;9573;50.948;11.600;2023-11-25T04:44:57;0.90;99.90
18882;DHT22;9573;50.948;11.600;2023-11-25T04:47:24;0.80;99.90
18882;DHT22;9573;50.948;11.600;2023-11-25T04:49:52;0.70;99.90
18882;DHT22;9573;50.948;11.600;2023-11-25T04:52:19;0.60;99.90
18882;DHT22;9573;50.948;11.600;2023-11-25T04:54:46;0.60;99.90
18882;DHT22;9573;50.948;11.600;2023-11-25T04:57:15;0.50;99.90
18882;DHT22;9573;50.948;11.600;2023-11-25T04:59:43;0.50;99.90
18882;DHT22;9573;50.948;11.600;2023-11-25T05:02:11;0.40;99.90
18882;DHT22;9573;50.948;11.600;2023-11-25T05:04:39;0.50;99.90
18882;DHT22;9573;50.948;11.600;2023-11-25T05:07:06;0.60;99.90
18882;DHT22;9573;50.948;11.600;2023-11-25T05:09:34;0.70;99.90
18882;DHT22;9573;50.948;11.600;2023-11-25T05:12:04;0.80;99.90
18882;DHT22;9573;50.948;11.600;2023-11-25T05:14:33;0.90;99.90
18882;DHT22;9573;50.948;11.600;2023-11-25T05:17:04;0.90;99.90
18882;DHT22;9573;50.948;11.600;2023-11-25T05:19:31;0.80;99.90
18882;DHT22;9573;50.948;11.600;2023-11-25T05:21:58;0.00;99.90
18882;DHT22;9573;50.948;11.600;2023-11-25T05:24:25;0.60;99.90
18882;DHT22;9573;50.948;11.600;2023-11-25T05:26:52;1.70;99.90
18882;DHT22;9573;50.948;11.600;2023-11-25T05:29:20;0.50;99.90
18882;DHT22;9573;50.948;11.600;2023-11-25T05:31:48;0.60;99.90
18882;DHT22;9573;50.948;11.600;2023-11-25T05:34:15;0.90;99.90
18882;DHT22;9573;50.948;11.600;2023-11-25T05:36:43;1.00;99.90
18882;DHT22;9573;50.948;11.600;2023-11-25T05:39:10;1.00;99.90
18882;DHT22;9573;50.948;11.600;2023-11-25T05:41:39;1.10;99.90
18882;DHT22;9573;50.948;11.600;2023-11-25T05:44:07;1.00;99.90
18882;DHT22;9573;50.948;11.600;2023-11-25T05:46:36;0.90;99.90
18882;DHT22;9573;50.948;11.600;2023-11-25T05:49:04;1.00;99.90
18882;DHT22;9573;50.948;11.600;2023-11-25T05:51:35;1.00;99.90
18882;DHT22;9573;50.948;11.600;2023-11-25T05:54:04;1.00;99.90
18882;DHT22;9573;50.948;11.600;2023-11-25T05:56:31;1.10;99.90
18882;DHT22;9573;50.948;11.600;2023-11-25T05:58:58;1.10;99.90
18882;DHT22;9573;50.948;11.600;2023-11-25T06:01:26;1.10;99.90
18882;DHT22;9573;50.948;11.600;2023-11-25T06:03:54;1.10;99.90
18882;DHT22;9573;50.948;11.600;2023-11-25T06:06:22;1.10;99.90
18882;DHT22;9573;50.948;11.600;2023-11-25T06:08:50;1.00;99.90
18882;DHT22;9573;50.948;11.600;2023-11-25T06:11:20;0.90;99.90
18882;DHT22;9573;50.948;11.600;2023-11-25T06:13:47;0.80;99.90
18882;DHT22;9573;50.948;11.600;2023-11-25T06:16:14;0.80;99.90
18882;DHT22;9573;50.948;11.600;2023-11-25T06:18:41;0.80;99.90
18882;DHT22;9573;50.948;11.600;2023-11-25T06:21:09;0.90;99.90
18882;DHT22;9573;50.948;11.600;2023-11-25T06:23:38;0.90;99.90
18882;DHT22;9573;50.948;11.600;2023-11-25T06:26:06;1.10;99.90
18882;DHT22;9573;50.948;11.600;2023-11-25T06:28:40;1.20;99.90
18882;DHT22;9573;50.948;11.600;2023-11-25T06:31:07;1.30;99.90
18882;DHT22;9573;50.948;11.600;2023-11-25T06:33:35;1.40;99.90
18882;DHT22;9573;50.948;11.600;2023-11-25T06:36:04;1.40;99.90
18882;DHT22;9573;50.948;11.600;2023-11-25T06:38:32;1.50;99.90
18882;DHT22;9573;50.948;11.600;2023-11-25T06:41:01;1.70;99.90
18882;DHT22;9573;50.948;11.600;2023-11-25T06:43:28;1.80;99.90
18882;DHT22;9573;50.948;11.600;2023-11-25T06:45:58;1.90;99.90
18882;DHT22;9573;50.948;11.600;2023-11-25T06:48:25;2.00;99.90
18882;DHT22;9573;50.948;11.600;2023-11-25T06:50:52;2.00;99.90
18882;DHT22;9573;50.948;11.600;2023-11-25T06:53:19;2.10;99.90
18882;DHT22;9573;50.948;11.600;2023-11-25T06:55:47;2.10;99.90
18882;DHT22;9573;50.948;11.600;2023-11-25T06:58:16;2.20;99.90
18882;DHT22;9573;50.948;11.600;2023-11-25T07:00:44;2.30;99.90
18882;DHT22;9573;50.948;11.600;2023-11-25T07:03:11;2.30;99.90
18882;DHT22;9573;50.948;11.600;2023-11-25T07:05:38;2.30;99.90
18882;DHT22;9573;50.948;11.600;2023-11-25T07:08:06;2.40;99.90
18882;DHT22;9573;50.948;11.600;2023-11-25T07:10:33;2.40;99.90
18882;DHT22;9573;50.948;11.600;2023-11-25T07:13:01;2.40;99.90
18882;DHT22;9573;50.948;11.600;2023-11-25T07:15:29;2.40;99.90
18882;DHT22;9573;50.948;11.600;2023-11-25T07:17:57;2.40;99.90
18882;DHT22;9573;50.948;11.600;2023-11-25T07:20:26;2.40;99.90
18882;DHT22;9573;50.948;11.600;2023-11-25T07:22:54;2.50;99.90
18882;DHT22;9573;50.948;11.600;2023-11-25T07:25:21;2.60;99.90
18882;DHT22;9573;50.948;11.600;2023-11-25T07:27:53;2.60;99.90
18882;DHT22;9573;50.948;11.600;2023-11-25T07:30:20;2.80;99.90
18882;DHT22;9573;50.948;11.600;2023-11-25T07:32:49;2.90;99.90
18882;DHT22;9573;50.948;11.600;2023-11-25T07:35:16;3.10;99.90
18882;DHT22;9573;50.948;11.600;2023-11-25T07:37:43;3.30;99.90
18882;DHT22;9573;50.948;11.600;2023-11-25T07:40:11;3.50;99.90
18882;DHT22;9573;50.948;11.600;2023-11-25T07:42:40;3.60;99.90
18882;DHT22;9573;50.948;11.600;2023-11-25T07:45:09;4.80;99.90
18882;DHT22;9573;50.948;11.600;2023-11-25T07:47:37;3.60;99.90
18882;DHT22;9573;50.948;11.600;2023-11-25T07:50:06;3.50;99.90
18882;DHT22;9573;50.948;11.600;2023-11-25T07:52:34;3.50;99.90
18882;DHT22;9573;50.948;11.600;2023-11-25T07:55:01;3.50;99.90
18882;DHT22;9573;50.948;11.600;2023-11-25T07:57:33;3.50;99.90
18882;DHT22;9573;50.948;11.600;2023-11-25T08:00:00;3.50;99.90
18882;DHT22;9573;50.948;11.600;2023-11-25T08:02:27;3.60;99.90
18882;DHT22;9573;50.948;11.600;2023-11-25T08:04:55;3.70;99.90
18882;DHT22;9573;50.948;11.600;2023-11-25T08:07:28;3.70;99.90
18882;DHT22;9573;50.948;11.600;2023-11-25T08:09:58;3.80;99.90
18882;DHT22;9573;50.948;11.600;2023-11-25T08:12:58;3.90;99.90
18882;DHT22;9573;50.948;11.600;2023-11-25T08:15:31;3.90;99.90
18882;DHT22;9573;50.948;11.600;2023-11-25T08:17:59;4.10;99.90
18882;DHT22;9573;50.948;11.600;2023-11-25T08:20:55;4.10;99.90
18882;DHT22;9573;50.948;11.600;2023-11-25T08:23:28;4.30;99.90
18882;DHT22;9573;50.948;11.600;2023-11-25T08:26:02;4.50;99.90
18882;DHT22;9573;50.948;11.600;2023-11-25T08:28:55;4.60;99.90
18882;DHT22;9573;50.948;11.600;2023-11-25T08:31:33;5.00;99.90
18882;DHT22;9573;50.948;11.600;2023-11-25T08:34:39;5.30;99.90
18882;DHT22;9573;50.948;11.600;2023-11-25T08:37:09;5.60;99.90
18882;DHT22;9573;50.948;11.600;2023-11-25T08:39:41;5.80;99.90
18882;DHT22;9573;50.948;11.600;2023-11-25T08:42:14;6.00;99.90
18882;DHT22;9573;50.948;11.600;2023-11-25T08:44:46;6.20;99.90
18882;DHT22;9573;50.948;11.600;2023-11-25T08:50:09;5.90;99.90
18882;DHT22;9573;50.948;11.600;2023-11-25T08:52:41;5.80;99.90
18882;DHT22;9573;50.948;11.600;2023-11-25T08:55:24;5.60;99.90
18882;DHT22;9573;50.948;11.600;2023-11-25T08:57:58;5.40;99.90
18882;DHT22;9573;50.948;11.600;2023-11-25T09:00:40;5.20;99.90
18882;DHT22;9573;50.948;11.600;2023-11-25T09:03:17;4.90;99.90
18882;DHT22;9573;50.948;11.600;2023-11-25T09:05:46;4.90;99.90
18882;DHT22;9573;50.948;11.600;2023-11-25T09:08:13;4.80;99.90
18882;DHT22;9573;50.948;11.600;2023-11-25T09:10:42;4.70;99.90
18882;DHT22;9573;50.948;11.600;2023-11-25T09:13:09;4.60;99.90
18882;DHT22;9573;50.948;11.600;2023-11-25T09:15:42;4.50;99.90
18882;DHT22;9573;50.948;11.600;2023-11-25T09:18:16;4.50;99.90
18882;DHT22;9573;50.948;11.600;2023-11-25T09:20:44;4.60;99.90
18882;DHT22;9573;50.948;11.600;2023-11-25T09:23:11;4.70;99.90
18882;DHT22;9573;50.948;11.600;2023-11-25T09:25:38;4.80;99.90
18882;DHT22;9573;50.948;11.600;2023-11-25T09:28:07;4.80;99.90
18882;DHT22;9573;50.948;11.600;2023-11-25T09:30:35;4.90;99.90
18882;DHT22;9573;50.948;11.600;2023-11-25T09:33:02;4.90;99.90
18882;DHT22;9573;50.948;11.600;2023-11-25T09:35:30;4.70;99.90
18882;DHT22;9573;50.948;11.600;2023-11-25T09:37:57;4.60;99.90
18882;DHT22;9573;50.948;11.600;2023-11-25T09:40:27;4.50;99.90
18882;DHT22;9573;50.948;11.600;2023-11-25T09:42:55;4.50;99.90
18882;DHT22;9573;50.948;11.600;2023-11-25T09:45:24;4.60;99.90
18882;DHT22;9573;50.948;11.600;2023-11-25T09:47:54;4.60;99.90
18882;DHT22;9573;50.948;11.600;2023-11-25T09:50:22;4.70;99.90
18882;DHT22;9573;50.948;11.600;2023-11-25T09:52:50;4.70;99.90
18882;DHT22;9573;50.948;11.600;2023-11-25T09:55:18;4.70;99.90
18882;DHT22;9573;50.948;11.600;2023-11-25T09:57:49;4.80;99.90
18882;DHT22;9573;50.948;11.600;2023-11-25T10:00:20;4.80;99.90
18882;DHT22;9573;50.948;11.600;2023-11-25T10:03:10;4.80;99.90
18882;DHT22;9573;50.948;11.600;2023-11-25T10:05:40;4.80;99.90
18882;DHT22;9573;50.948;11.600;2023-11-25T10:08:07;4.80;99.90
18882;DHT22;9573;50.948;11.600;2023-11-25T10:10:34;4.90;99.90
18882;DHT22;9573;50.948;11.600;2023-11-25T10:13:02;4.90;99.90
18882;DHT22;9573;50.948;11.600;2023-11-25T10:15:30;4.70;99.90
18882;DHT22;9573;50.948;11.600;2023-11-25T10:17:58;4.70;99.90
18882;DHT22;9573;50.948;11.600;2023-11-25T10:20:27;4.80;99.90
18882;DHT22;9573;50.948;11.600;2023-11-25T10:22:56;4.90;99.90
18882;DHT22;9573;50.948;11.600;2023-11-25T10:25:26;5.10;99.90
18882;DHT22;9573;50.948;11.600;2023-11-25T10:27:53;5.20;99.90
18882;DHT22;9573;50.948;11.600;2023-11-25T10:30:22;5.30;99.90
18882;DHT22;9573;50.948;11.600;2023-11-25T10:32:51;5.40;99.90
18882;DHT22;9573;50.948;11.600;2023-11-25T10:35:22;5.50;99.90
18882;DHT22;9573;50.948;11.600;2023-11-25T10:37:52;5.50;99.90
18882;DHT22;9573;50.948;11.600;2023-11-25T10:40:20;5.60;99.90
18882;DHT22;9573;50.948;11.600;2023-11-25T10:42:47;5.60;99.90
18882;DHT22;9573;50.948;11.600;2023-11-25T10:45:15;5.70;99.90
18882;DHT22;9573;50.948;11.600;2023-11-25T10:47:43;5.70;99.90
18882;DHT22;9573;50.948;11.600;2023-11-25T10:50:10;5.80;99.90
18882;DHT22;9573;50.948;11.600;2023-11-25T10:52:41;5.80;99.90
18882;DHT22;9573;50.948;11.600;2023-11-25T10:55:12;5.80;99.90
18882;DHT22;9573;50.948;11.600;2023-11-25T10:57:40;5.70;99.90
18882;DHT22;9573;50.948;11.600;2023-11-25T11:00:08;5.70;99.90
18882;DHT22;9573;50.948;11.600;2023-11-25T11:02:44;5.60;99.90
18882;DHT22;9573;50.948;11.600;2023-11-25T11:05:14;5.40;99.90
18882;DHT22;9573;50.948;11.600;2023-11-25T11:07:46;5.30;99.90
18882;DHT22;9573;50.948;11.600;2023-11-25T11:10:20;5.20;99.90
18882;DHT22;9573;50.948;11.600;2023-11-25T11:13:01;5.20;99.90
18882;DHT22;9573;50.948;11.600;2023-11-25T11:15:31;5.30;99.90
18882;DHT22;9573;50.948;11.600;2023-11-25T11:18:05;5.30;99.90
18882;DHT22;9573;50.948;11.600;2023-11-25T11:20:41;5.30;99.90
18882;DHT22;9573;50.948;11.600;2023-11-25T11:23:13;5.30;99.90
18882;DHT22;9573;50.948;11.600;2023-11-25T11:25:52;5.20;99.90
18882;DHT22;9573;50.948;11.600;2023-11-25T11:28:31;5.20;99.90
18882;DHT22;9573;50.948;11.600;2023-11-25T11:31:33;5.20;99.90
18882;DHT22;9573;50.948;11.600;2023-11-25T11:34:11;5.30;99.90
18882;DHT22;9573;50.948;11.600;2023-11-25T11:36:40;5.40;99.90
18882;DHT22;9573;50.948;11.600;2023-11-25T11:39:07;5.50;99.90
18882;DHT22;9573;50.948;11.600;2023-11-25T11:41:38;5.40;99.90
18882;DHT22;9573;50.948;11.600;2023-11-25T11:44:06;5.40;99.90
18882;DHT22;9573;50.948;11.600;2023-11-25T11:46:36;5.40;99.90
18882;DHT22;9573;50.948;11.600;2023-11-25T11:49:06;5.30;99.90
18882;DHT22;9573;50.948;11.600;2023-11-25T11:51:34;5.20;99.90
18882;DHT22;9573;50.948;11.600;2023-11-25T11:54:23;5.20;99.90
18882;DHT22;9573;50.948;11.600;2023-11-25T11:57:00;5.20;99.90
18882;DHT22;9573;50.948;11.600;2023-11-25T11:59:56;5.40;99.90
18882;DHT22;9573;50.948;11.600;2023-11-25T12:02:27;5.50;99.90
18882;DHT22;9573;50.948;11.600;2023-11-25T12:04:56;5.40;99.90
18882;DHT22;9573;50.948;11.600;2023-11-25T12:07:24;5.40;99.90
18882;DHT22;9573;50.948;11.600;2023-11-25T12:09:52;5.30;99.90
18882;DHT22;9573;50.948;11.600;2023-11-25T12:12:21;5.30;99.90
18882;DHT22;9573;50.948;11.600;2023-11-25T12:14:49;5.30;99.90
18882;DHT22;9573;50.948;11.600;2023-11-25T12:17:17;5.30;99.90
18882;DHT22;9573;50.948;11.600;2023-11-25T12:19:44;5.30;99.90
18882;DHT22;9573;50.948;11.600;2023-11-25T12:22:12;5.40;99.90
18882;DHT22;9573;50.948;11.600;2023-11-25T12:24:41;5.50;99.90
18882;DHT22;9573;50.948;11.600;2023-11-25T12:27:11;5.50;99.90
18882;DHT22;9573;50.948;11.600;2023-11-25T12:29:40;5.60;99.90
18882;DHT22;9573;50.948;11.600;2023-11-25T12:32:07;5.70;99.90
18882;DHT22;9573;50.948;11.600;2023-11-25T12:34:35;5.70;99.90
18882;DHT22;9573;50.948;11.600;2023-11-25T12:37:02;5.70;99.90
18882;DHT22;9573;50.948;11.600;2023-11-25T12:39:29;5.70;99.90
18882;DHT22;9573;50.948;11.600;2023-11-25T12:41:56;6.70;99.90
18882;DHT22;9573;50.948;11.600;2023-11-25T12:44:23;5.70;99.90
18882;DHT22;9573;50.948;11.600;2023-11-25T12:47:01;5.80;99.90
18882;DHT22;9573;50.948;11.600;2023-11-25T12:49:32;5.90;99.90
18882;DHT22;9573;50.948;11.600;2023-11-25T12:52:00;6.00;99.90
18882;DHT22;9573;50.948;11.600;2023-11-25T12:54:42;6.10;99.90
18882;DHT22;9573;50.948;11.600;2023-11-25T12:57:10;6.20;99.90
18882;DHT22;9573;50.948;11.600;2023-11-25T12:59:38;6.10;99.90
18882;DHT22;9573;50.948;11.600;2023-11-25T13:02:10;6.20;99.90
18882;DHT22;9573;50.948;11.600;2023-11-25T13:04:43;6.20;99.90
18882;DHT22;9573;50.948;11.600;2023-11-25T13:07:27;6.00;99.90
18882;DHT22;9573;50.948;11.600;2023-11-25T13:09:55;6.10;99.90
18882;DHT22;9573;50.948;11.600;2023-11-25T13:12:22;6.10;99.90
18882;DHT22;9573;50.948;11.600;2023-11-25T13:14:50;6.10;99.90
18882;DHT22;9573;50.948;11.600;2023-11-25T13:17:19;6.00;99.90
18882;DHT22;9573;50.948;11.600;2023-11-25T13:19:46;5.90;99.90
18882;DHT22;9573;50.948;11.600;2023-11-25T13:22:13;5.80;99.90
18882;DHT22;9573;50.948;11.600;2023-11-25T13:24:43;5.70;99.90
18882;DHT22;9573;50.948;11.600;2023-11-25T13:27:10;5.70;99.90
18882;DHT22;9573;50.948;11.600;2023-11-25T13:29:38;5.70;99.90
18882;DHT22;9573;50.948;11.600;2023-11-25T13:32:07;5.70;99.90
18882;DHT22;9573;50.948;11.600;2023-11-25T13:34:38;5.70;99.90
18882;DHT22;9573;50.948;11.600;2023-11-25T13:37:06;5.60;99.90
18882;DHT22;9573;50.948;11.600;2023-11-25T13:39:33;5.70;99.90
18882;DHT22;9573;50.948;11.600;2023-11-25T13:42:01;5.60;99.90
18882;DHT22;9573;50.948;11.600;2023-11-25T13:44:30;5.50;99.90
18882;DHT22;9573;50.948;11.600;2023-11-25T13:46:57;5.50;99.90
18882;DHT22;9573;50.948;11.600;2023-11-25T13:49:24;5.50;99.90
18882;DHT22;9573;50.948;11.600;2023-11-25T13:51:56;5.50;99.90
18882;DHT22;9573;50.948;11.600;2023-11-25T13:54:23;5.50;99.90
18882;DHT22;9573;50.948;11.600;2023-11-25T13:56:51;5.40;99.90
18882;DHT22;9573;50.948;11.600;2023-11-25T13:59:21;5.30;99.90
18882;DHT22;9573;50.948;11.600;2023-11-25T14:01:48;5.30;99.90
18882;DHT22;9573;50.948;11.600;2023-11-25T14:04:15;5.20;99.90
18882;DHT22;9573;50.948;11.600;2023-11-25T14:06:44;5.20;99.90
18882;DHT22;9573;50.948;11.600;2023-11-25T14:09:12;5.20;99.90
18882;DHT22;9573;50.948;11.600;2023-11-25T14:11:42;5.10;99.90
18882;DHT22;9573;50.948;11.600;2023-11-25T14:14:10;5.10;99.90
18882;DHT22;9573;50.948;11.600;2023-11-25T14:16:37;5.10;99.90
18882;DHT22;9573;50.948;11.600;2023-11-25T14:19:04;5.10;99.90
18882;DHT22;9573;50.948;11.600;2023-11-25T14:21:32;5.10;99.90
18882;DHT22;9573;50.948;11.600;2023-11-25T14:23:59;5.10;99.90
18882;DHT22;9573;50.948;11.600;2023-11-25T14:26:28;5.20;99.90
18882;DHT22;9573;50.948;11.600;2023-11-25T14:28:55;5.20;99.90
18882;DHT22;9573;50.948;11.600;2023-11-25T14:31:22;5.20;99.90
18882;DHT22;9573;50.948;11.600;2023-11-25T14:33:50;5.20;99.90
18882;DHT22;9573;50.948;11.600;2023-11-25T14:36:17;5.20;99.90
18882;DHT22;9573;50.948;11.600;2023-11-25T14:38:44;5.10;99.90
18882;DHT22;9573;50.948;11.600;2023-11-25T14:41:11;5.10;99.90
18882;DHT22;9573;50.948;11.600;2023-11-25T14:43:41;5.10;99.90
18882;DHT22;9573;50.948;11.600;2023-11-25T14:46:08;5.10;99.90
18882;DHT22;9573;50.948;11.600;2023-11-25T14:48:37;5.00;99.90
18882;DHT22;9573;50.948;11.600;2023-11-25T14:51:04;5.00;99.90
18882;DHT22;9573;50.948;11.600;2023-11-25T14:53:32;5.00;99.90
18882;DHT22;9573;50.948;11.600;2023-11-25T14:55:59;5.00;99.90
18882;DHT22;9573;50.948;11.600;2023-11-25T14:58:26;5.00;99.90
18882;DHT22;9573;50.948;11.600;2023-11-25T15:00:55;4.90;99.90
18882;DHT22;9573;50.948;11.600;2023-11-25T15:03:22;4.90;99.90
18882;DHT22;9573;50.948;11.600;2023-11-25T15:05:49;4.80;99.90
18882;DHT22;9573;50.948;11.600;2023-11-25T15:08:16;4.70;99.90
18882;DHT22;9573;50.948;11.600;2023-11-25T15:10:43;4.50;99.90
18882;DHT22;9573;50.948;11.600;2023-11-25T15:13:12;4.50;99.90
18882;DHT22;9573;50.948;11.600;2023-11-25T15:15:40;4.40;99.90
18882;DHT22;9573;50.948;11.600;2023-11-25T15:18:09;4.30;99.90
18882;DHT22;9573;50.948;11.600;2023-11-25T15:20:37;4.30;99.90
18882;DHT22;9573;50.948;11.600;2023-11-25T15:23:04;4.30;99.90
18882;DHT22;9573;50.948;11.600;2023-11-25T15:25:32;4.30;99.90
18882;DHT22;9573;50.948;11.600;2023-11-25T15:27:59;4.30;99.90
18882;DHT22;9573;50.948;11.600;2023-11-25T15:30:27;4.40;99.90
18882;DHT22;9573;50.948;11.600;2023-11-25T15:32:54;4.40;99.90
18882;DHT22;9573;50.948;11.600;2023-11-25T15:35:23;4.40;99.90
18882;DHT22;9573;50.948;11.600;2023-11-25T15:37:50;4.40;99.90
18882;DHT22;9573;50.948;11.600;2023-11-25T15:40:17;4.40;99.90
18882;DHT22;9573;50.948;11.600;2023-11-25T15:42:45;4.40;99.90
18882;DHT22;9573;50.948;11.600;2023-11-25T15:45:13;4.40;99.90
18882;DHT22;9573;50.948;11.600;2023-11-25T15:47:41;4.40;99.90
18882;DHT22;9573;50.948;11.600;2023-11-25T15:50:08;4.40;99.90
18882;DHT22;9573;50.948;11.600;2023-11-25T15:52:37;4.40;99.90
18882;DHT22;9573;50.948;11.600;2023-11-25T15:55:05;4.40;99.90
18882;DHT22;9573;50.948;11.600;2023-11-25T15:57:36;4.40;99.90
18882;DHT22;9573;50.948;11.600;2023-11-25T16:00:04;4.40;99.90